createdAt,value
2019-05-12T00:00:28.812Z,74.59
2019-05-12T00:02:59.338Z,74.72
2019-05-12T00:05:28.049Z,75.16
2019-05-12T00:07:58.314Z,75.07
2019-05-12T00:10:28.245Z,75.57
2019-05-12T00:12:58.162Z,75.59
2019-05-12T00:15:28.077Z,75.85
2019-05-12T00:17:58.698Z,75.69
2019-05-12T00:20:28.333Z,76.04
2019-05-12T00:22:58.556Z,76.15
2019-05-12T00:25:28.299Z,76.77
2019-05-12T00:27:58.659Z,76.79
2019-05-12T00:30:34.546Z,76.60
2019-05-12T00:33:04.083Z,76.75
2019-05-12T00:35:32.910Z,76.96
2019-05-12T00:38:01.544Z,77.19
2019-05-12T00:40:30.087Z,77.45
2019-05-12T00:42:58.592Z,77.54
2019-05-12T00:45:29.305Z,77.39
2019-05-12T00:47:58.359Z,77.86
2019-05-12T00:50:28.884Z,78.04
2019-05-12T00:52:58.034Z,78.02
2019-05-12T00:55:29.012Z,78.38
2019-05-12T00:57:58.162Z,78.18
2019-05-12T01:00:29.298Z,78.52
2019-05-12T01:02:58.160Z,78.37
2019-05-12T01:05:29.142Z,78.71
2019-05-12T01:07:58.321Z,78.69
2019-05-12T01:10:28.567Z,78.88
2019-05-12T01:12:58.200Z,78.74
2019-05-12T01:15:28.813Z,78.85
2019-05-12T01:17:58.608Z,78.82
2019-05-12T01:20:28.369Z,78.79
2019-05-12T01:22:57.869Z,79.05
2019-05-12T01:25:28.729Z,79.33
2019-05-12T01:27:58.919Z,79.31
2019-05-12T01:30:28.517Z,79.56
2019-05-12T01:32:58.103Z,79.97
2019-05-12T01:35:28.292Z,80.01
2019-05-12T01:38:01.174Z,80.41
2019-05-12T01:40:28.743Z,80.12
2019-05-12T01:42:58.295Z,80.69
2019-05-12T01:45:28.876Z,80.92
2019-05-12T01:47:59.097Z,80.36
2019-05-12T01:50:28.261Z,80.80
2019-05-12T01:52:58.773Z,81.02
2019-05-12T01:55:28.129Z,81.56
2019-05-12T01:57:57.707Z,81.65
2019-05-12T02:00:28.295Z,81.99
2019-05-12T02:02:58.543Z,82.59
2019-05-12T02:05:27.955Z,82.51
2019-05-12T02:07:58.707Z,82.17
2019-05-12T02:10:28.665Z,82.44
2019-05-12T02:12:59.375Z,82.44
2019-05-12T02:15:27.992Z,82.44
2019-05-12T02:17:58.602Z,82.64
2019-05-12T02:20:28.776Z,82.80
2019-05-12T02:22:58.390Z,83.24
2019-05-12T02:25:28.695Z,83.13
2019-05-12T02:27:58.350Z,83.53
2019-05-12T02:30:30.559Z,83.86
2019-05-12T02:32:59.266Z,83.67
2019-05-12T02:35:27.256Z,83.53
2019-05-12T02:37:55.713Z,84.07
2019-05-12T02:40:25.226Z,84.26
2019-05-12T02:42:54.790Z,84.27
2019-05-12T02:45:25.339Z,84.09
2019-05-12T02:47:54.519Z,83.92
2019-05-12T02:50:37.599Z,84.28
2019-05-12T02:53:07.066Z,84.20
2019-05-12T02:55:36.042Z,84.13
2019-05-12T02:58:06.641Z,84.20
2019-05-12T03:00:36.602Z,84.39
2019-05-12T03:03:07.659Z,84.75
2019-05-12T03:05:37.187Z,84.36
2019-05-12T03:08:05.755Z,84.96
2019-05-12T03:10:36.241Z,84.79
2019-05-12T03:13:05.444Z,85.30
2019-05-12T03:15:36.769Z,86.40
2019-05-12T03:18:06.219Z,86.69
2019-05-12T03:20:35.742Z,86.36
2019-05-12T03:23:05.742Z,86.26
2019-05-12T03:25:36.328Z,86.26
2019-05-12T03:28:08.438Z,86.51
2019-05-12T03:30:38.263Z,86.40
2019-05-12T03:33:09.194Z,86.39
2019-05-12T03:35:43.135Z,85.98
2019-05-12T03:38:06.232Z,86.12
2019-05-12T03:40:38.131Z,86.63
2019-05-12T03:43:05.655Z,86.66
2019-05-12T03:45:35.915Z,86.64
2019-05-12T03:48:06.412Z,86.92
2019-05-12T03:50:35.876Z,87.20
2019-05-12T03:53:10.002Z,87.30
2019-05-12T03:55:41.509Z,87.85
2019-05-12T03:58:06.060Z,88.04
2019-05-12T04:00:35.795Z,88.37
2019-05-12T04:03:05.361Z,87.82
2019-05-12T04:05:35.834Z,87.82
2019-05-12T04:08:06.854Z,88.31
2019-05-12T04:10:36.431Z,87.94
2019-05-12T04:13:05.525Z,87.76
2019-05-12T04:15:35.653Z,87.70
2019-05-12T04:18:06.135Z,87.35
2019-05-12T04:20:35.973Z,87.50
2019-05-12T04:23:06.505Z,87.46
2019-05-12T04:25:49.223Z,87.43
2019-05-12T04:28:05.344Z,87.06
2019-05-12T04:30:35.447Z,86.89
2019-05-12T04:33:05.879Z,86.84
2019-05-12T04:35:35.911Z,86.78
2019-05-12T04:38:05.594Z,86.73
2019-05-12T04:40:36.420Z,86.51
2019-05-12T04:43:06.648Z,86.42
2019-05-12T04:45:35.732Z,86.54
2019-05-12T04:48:06.031Z,86.35
2019-05-12T04:50:36.142Z,85.84
2019-05-12T04:53:06.899Z,85.82
2019-05-12T04:55:36.213Z,85.64
2019-05-12T04:58:05.679Z,85.44
2019-05-12T05:00:35.237Z,78.64
2019-05-12T05:03:05.221Z,79.67
2019-05-12T05:05:35.390Z,73.94
2019-05-12T05:08:05.758Z,71.19
2019-05-12T05:10:35.001Z,69.16
2019-05-12T05:13:05.132Z,70.03
2019-05-12T05:15:35.071Z,74.60
2019-05-12T05:18:06.342Z,75.29
2019-05-12T05:20:34.631Z,78.01
2019-05-12T05:23:03.964Z,76.61
2019-05-12T05:25:34.220Z,74.37
2019-05-12T05:28:03.993Z,75.29
2019-05-12T05:30:33.844Z,76.08
2019-05-12T05:33:04.633Z,74.91
2019-05-12T05:35:38.968Z,74.41
2019-05-12T05:38:04.557Z,74.36
2019-05-12T05:40:35.290Z,76.21
2019-05-12T05:43:12.250Z,74.50
2019-05-12T05:45:35.214Z,72.86
2019-05-12T05:48:05.436Z,74.01
2019-05-12T05:50:34.268Z,72.42
2019-05-12T05:53:03.796Z,70.76
2019-05-12T05:55:34.254Z,68.22
2019-05-12T05:58:07.833Z,68.22
2019-05-12T06:00:34.667Z,68.51
2019-05-12T06:03:05.204Z,69.93
2019-05-12T06:05:34.675Z,68.58
2019-05-12T06:08:04.161Z,68.65
2019-05-12T06:10:36.255Z,69.73
2019-05-12T06:13:04.045Z,69.79
2019-05-12T06:15:35.774Z,69.42
2019-05-12T06:18:03.638Z,68.03
2019-05-12T06:20:37.453Z,68.29
2019-05-12T06:23:04.398Z,68.05
2019-05-12T06:25:46.037Z,65.93
2019-05-12T06:28:04.588Z,66.13
2019-05-12T06:30:37.504Z,65.11
2019-05-12T06:33:04.279Z,62.82
2019-05-12T06:35:37.399Z,63.02
2019-05-12T06:38:05.073Z,61.75
2019-05-12T06:40:40.443Z,61.62
2019-05-12T06:43:04.414Z,59.64
2019-05-12T06:45:39.455Z,57.49
2019-05-12T06:48:03.531Z,54.99
2019-05-12T06:50:36.465Z,54.77
2019-05-12T06:53:04.734Z,54.57
2019-05-12T06:55:34.506Z,52.58
2019-05-12T06:58:04.759Z,52.29
2019-05-12T07:00:35.000Z,50.08
2019-05-12T07:03:03.930Z,49.68
2019-05-12T07:05:37.977Z,47.64
2019-05-12T07:08:04.284Z,49.54
2019-05-12T07:10:41.671Z,50.09
2019-05-12T07:13:05.583Z,54.97
2019-05-12T07:15:35.722Z,55.27
2019-05-12T07:18:07.662Z,54.98
2019-05-12T07:20:39.029Z,57.35
2019-05-12T07:23:06.258Z,56.30
2019-05-12T07:25:36.823Z,56.37
2019-05-12T07:28:07.795Z,56.07
2019-05-12T07:30:35.459Z,56.42
2019-05-12T07:33:04.827Z,53.48
2019-05-12T07:35:34.359Z,54.15
2019-05-12T07:38:04.611Z,53.17
2019-05-12T07:40:37.155Z,52.15
2019-05-12T07:43:04.422Z,51.94
2019-05-12T07:45:33.999Z,49.57
2019-05-12T07:48:08.197Z,50.38
2019-05-12T07:50:34.481Z,52.68
2019-05-12T07:53:04.295Z,47.80
2019-05-12T07:55:34.174Z,47.60
2019-05-12T07:58:10.251Z,46.77
2019-05-12T08:00:34.070Z,48.18
2019-05-12T08:03:08.042Z,48.87
2019-05-12T08:05:33.713Z,47.09
2019-05-12T08:08:09.119Z,48.45
2019-05-12T08:10:34.215Z,49.22
2019-05-12T08:13:04.364Z,47.77
2019-05-12T08:15:33.911Z,48.13
2019-05-12T08:18:07.642Z,47.62
2019-05-12T08:20:34.345Z,44.65
2019-05-12T08:23:05.839Z,44.61
2019-05-12T08:25:34.439Z,45.12
2019-05-12T08:28:14.109Z,48.87
2019-05-12T08:30:40.506Z,46.02
2019-05-12T08:33:09.705Z,47.52
2019-05-12T08:35:38.393Z,48.19
2019-05-12T08:38:06.422Z,47.83
2019-05-12T08:40:39.791Z,46.10
2019-05-12T08:43:10.371Z,46.04
2019-05-12T08:45:37.536Z,45.79
2019-05-12T08:48:10.293Z,45.66
2019-05-12T08:50:36.273Z,45.06
2019-05-12T08:53:04.959Z,42.85
2019-05-12T08:55:35.835Z,45.09
2019-05-12T08:58:04.216Z,45.13
2019-05-12T09:00:39.608Z,43.70
2019-05-12T09:03:08.128Z,46.21
2019-05-12T09:05:38.596Z,42.96
2019-05-12T09:08:06.815Z,44.08
2019-05-12T09:10:35.257Z,43.88
2019-05-12T09:13:04.308Z,43.42
2019-05-12T09:15:34.599Z,43.18
2019-05-12T09:18:04.870Z,46.78
2019-05-12T09:20:40.060Z,44.68
2019-05-12T09:23:05.007Z,43.56
2019-05-12T09:25:34.279Z,42.36
2019-05-12T09:28:03.803Z,43.13
2019-05-12T09:30:33.597Z,44.84
2019-05-12T09:33:04.110Z,40.88
2019-05-12T09:35:34.974Z,40.55
2019-05-12T09:38:05.360Z,45.82
2019-05-12T09:40:34.929Z,45.01
2019-05-12T09:43:08.662Z,45.45
2019-05-12T09:45:33.548Z,42.12
2019-05-12T09:48:04.842Z,41.78
2019-05-12T09:50:33.937Z,41.71
2019-05-12T09:53:09.735Z,41.01
2019-05-12T09:55:34.208Z,42.08
2019-05-12T09:58:04.076Z,42.00
2019-05-12T10:00:35.880Z,39.93
2019-05-12T10:03:04.781Z,41.35
2019-05-12T10:05:39.162Z,41.35
2019-05-12T10:08:04.503Z,43.53
2019-05-12T10:10:38.238Z,36.28
2019-05-12T10:13:04.638Z,40.42
2019-05-12T10:15:33.585Z,40.21
2019-05-12T10:18:06.470Z,40.24
2019-05-12T10:20:35.363Z,40.45
2019-05-12T10:23:04.405Z,39.27
2019-05-12T10:25:33.934Z,40.68
2019-05-12T10:28:11.059Z,38.41
2019-05-12T10:30:34.263Z,38.98
2019-05-12T10:33:03.768Z,38.05
2019-05-12T10:35:35.047Z,41.92
2019-05-12T10:38:06.265Z,34.79
2019-05-12T10:40:33.861Z,37.36
2019-05-12T10:43:04.434Z,37.36
2019-05-12T10:45:33.271Z,35.78
2019-05-12T10:48:03.639Z,37.44
2019-05-12T10:50:34.053Z,37.79
2019-05-12T10:53:04.224Z,37.33
2019-05-12T10:55:33.529Z,38.33
2019-05-12T10:58:06.524Z,35.74
2019-05-12T11:00:33.774Z,35.39
2019-05-12T11:03:10.307Z,37.18
2019-05-12T11:05:34.050Z,35.67
2019-05-12T11:08:06.507Z,36.94
2019-05-12T11:10:32.901Z,36.15
2019-05-12T11:13:07.528Z,39.74
2019-05-12T11:15:33.934Z,39.40
2019-05-12T11:18:03.356Z,36.03
2019-05-12T11:20:34.379Z,37.50
2019-05-12T11:23:03.685Z,36.24
2019-05-12T11:25:33.956Z,36.42
2019-05-12T11:28:03.808Z,36.01
2019-05-12T11:30:34.651Z,39.45
2019-05-12T11:33:04.286Z,36.54
2019-05-12T11:35:33.483Z,35.68
2019-05-12T11:38:04.122Z,36.33
2019-05-12T11:40:34.358Z,35.75
2019-05-12T11:43:04.107Z,36.69
2019-05-12T11:45:33.641Z,37.38
2019-05-12T11:48:05.929Z,35.97
2019-05-12T11:50:32.536Z,37.65
2019-05-12T11:53:00.998Z,35.41
2019-05-12T11:55:31.738Z,37.00
2019-05-12T11:58:00.355Z,37.54
2019-05-12T12:00:33.504Z,37.86
2019-05-12T12:03:12.362Z,36.48
2019-05-12T12:05:37.939Z,34.89
2019-05-12T12:08:05.673Z,39.39
2019-05-12T12:10:38.155Z,38.41
2019-05-12T12:13:04.316Z,36.91
2019-05-12T12:15:34.418Z,35.34
2019-05-12T12:18:12.438Z,36.69
2019-05-12T12:20:33.786Z,37.35
2019-05-12T12:23:08.855Z,37.97
2019-05-12T12:25:34.302Z,36.20
2019-05-12T12:28:04.422Z,38.68
2019-05-12T12:30:33.950Z,37.12
2019-05-12T12:33:03.970Z,36.56
2019-05-12T12:35:34.579Z,36.45
2019-05-12T12:38:03.668Z,38.72
2019-05-12T12:40:32.305Z,37.11
2019-05-12T12:43:03.425Z,38.01
2019-05-12T12:45:40.411Z,36.16
2019-05-12T12:48:08.716Z,36.11
2019-05-12T12:50:37.146Z,37.45
2019-05-12T12:53:05.640Z,37.35
2019-05-12T12:55:38.036Z,39.12
2019-05-12T12:58:04.259Z,36.63
2019-05-12T13:00:46.846Z,37.41
2019-05-12T13:03:03.689Z,38.79
2019-05-12T13:05:34.350Z,34.53
2019-05-12T13:08:04.275Z,33.37
2019-05-12T13:10:33.722Z,37.19
2019-05-12T13:13:04.184Z,39.53
2019-05-12T13:15:34.001Z,35.87
2019-05-12T13:18:02.597Z,34.81
2019-05-12T13:20:31.048Z,35.67
2019-05-12T13:22:59.457Z,34.63
2019-05-12T13:25:27.866Z,38.50
2019-05-12T13:27:56.362Z,35.84
2019-05-12T13:30:24.880Z,36.15
2019-05-12T13:32:53.292Z,36.06
2019-05-12T13:35:23.712Z,33.74
2019-05-12T13:37:56.471Z,33.78
2019-05-12T13:40:23.409Z,35.13
2019-05-12T13:42:54.488Z,35.08
2019-05-12T13:45:24.273Z,35.95
2019-05-12T13:47:53.432Z,34.84
2019-05-12T13:50:26.331Z,36.67
2019-05-12T13:52:54.177Z,36.58
2019-05-12T13:55:23.958Z,35.17
2019-05-12T13:57:57.609Z,33.83
2019-05-12T14:00:22.705Z,33.99
2019-05-12T14:02:57.172Z,35.32
2019-05-12T14:05:21.324Z,37.53
2019-05-12T14:07:54.840Z,36.57
2019-05-12T14:10:19.909Z,36.92
2019-05-12T14:12:48.329Z,37.71
2019-05-12T14:15:17.530Z,35.39
2019-05-12T14:17:45.972Z,35.65
2019-05-12T14:20:19.753Z,35.93
2019-05-12T14:22:45.034Z,36.65
2019-05-12T14:25:15.178Z,36.53
2019-05-12T14:27:44.453Z,37.16
2019-05-12T14:30:14.405Z,38.78
2019-05-12T14:32:43.956Z,37.62
2019-05-12T14:35:13.075Z,37.15
2019-05-12T14:37:45.792Z,36.32
2019-05-12T14:40:13.432Z,34.60
2019-05-12T14:42:44.266Z,36.67
2019-05-12T14:45:13.867Z,37.56
2019-05-12T14:47:43.736Z,37.66
2019-05-12T14:50:14.126Z,36.97
2019-05-12T14:52:43.926Z,36.51
2019-05-12T14:55:13.830Z,35.35
2019-05-12T14:57:43.037Z,35.79
2019-05-12T15:00:17.657Z,36.63
2019-05-12T15:02:44.318Z,38.29
2019-05-12T15:05:14.088Z,38.92
2019-05-12T15:07:51.284Z,37.67
2019-05-12T15:10:14.191Z,36.26
2019-05-12T15:12:44.113Z,37.62
2019-05-12T15:15:20.302Z,38.37
2019-05-12T15:17:44.686Z,36.05
2019-05-12T15:20:14.075Z,35.68
2019-05-12T15:22:51.192Z,36.34
2019-05-12T15:25:14.477Z,37.98
2019-05-12T15:27:46.106Z,36.36
2019-05-12T15:30:22.716Z,36.17
2019-05-12T15:32:44.200Z,36.50
2019-05-12T15:35:13.907Z,36.49
2019-05-12T15:37:43.792Z,35.07
2019-05-12T15:40:14.448Z,36.30
2019-05-12T15:42:45.230Z,35.45
2019-05-12T15:45:16.631Z,35.47
2019-05-12T15:47:44.938Z,36.19
2019-05-12T15:50:14.877Z,36.56
2019-05-12T15:52:45.631Z,36.61
2019-05-12T15:55:17.415Z,34.32
2019-05-12T15:57:44.229Z,35.29
2019-05-12T16:00:16.956Z,35.54
2019-05-12T16:02:45.190Z,37.16
2019-05-12T16:05:14.785Z,37.37
2019-05-12T16:07:47.455Z,37.58
2019-05-12T16:10:14.845Z,37.03
2019-05-12T16:12:43.972Z,36.94
2019-05-12T16:15:17.332Z,37.98
2019-05-12T16:17:44.360Z,37.65
2019-05-12T16:20:15.495Z,36.84
2019-05-12T16:22:45.026Z,39.46
2019-05-12T16:25:15.310Z,39.29
2019-05-12T16:27:44.745Z,38.67
2019-05-12T16:30:15.044Z,38.55
2019-05-12T16:32:47.698Z,38.92
2019-05-12T16:35:15.036Z,40.19
2019-05-12T16:37:44.663Z,39.85
2019-05-12T16:40:14.168Z,40.52
2019-05-12T16:42:48.163Z,41.12
2019-05-12T16:45:14.213Z,39.93
2019-05-12T16:47:44.793Z,40.53
2019-05-12T16:50:15.950Z,39.51
2019-05-12T16:52:45.381Z,40.88
2019-05-12T16:55:14.233Z,40.22
2019-05-12T16:57:50.910Z,40.91
2019-05-12T17:00:13.813Z,39.74
2019-05-12T17:02:52.037Z,40.71
2019-05-12T17:05:20.009Z,39.85
2019-05-12T17:07:44.397Z,40.43
2019-05-12T17:10:16.381Z,42.13
2019-05-12T17:12:44.094Z,41.66
2019-05-12T17:15:15.074Z,40.44
2019-05-12T17:17:44.915Z,42.41
2019-05-12T17:20:14.777Z,42.41
2019-05-12T17:22:54.091Z,41.74
2019-05-12T17:25:15.618Z,42.50
2019-05-12T17:27:44.897Z,43.00
2019-05-12T17:30:14.673Z,42.65
2019-05-12T17:32:57.518Z,43.29
2019-05-12T17:35:14.972Z,43.33
2019-05-12T17:37:44.693Z,44.07
2019-05-12T17:40:20.190Z,44.11
2019-05-12T17:42:44.570Z,45.54
2019-05-12T17:45:20.310Z,44.65
2019-05-12T17:47:44.978Z,44.41
2019-05-12T17:50:14.401Z,44.71
2019-05-12T17:52:45.154Z,45.27
2019-05-12T17:55:14.647Z,45.70
2019-05-12T17:57:44.031Z,46.37
2019-05-12T18:00:14.454Z,46.78
2019-05-12T18:02:43.878Z,47.22
2019-05-12T18:05:15.413Z,47.70
2019-05-12T18:07:44.859Z,47.45
2019-05-12T18:10:13.847Z,47.39
2019-05-12T18:12:45.185Z,48.44
2019-05-12T18:15:15.120Z,48.17
2019-05-12T18:17:45.351Z,49.04
2019-05-12T18:20:15.834Z,48.75
2019-05-12T18:22:47.039Z,49.22
2019-05-12T18:25:15.693Z,49.33
2019-05-12T18:27:50.518Z,50.25
2019-05-12T18:30:18.853Z,50.18
2019-05-12T18:32:45.603Z,50.88
2019-05-12T18:35:14.700Z,51.02
2019-05-12T18:37:43.132Z,51.53
2019-05-12T18:40:14.442Z,52.08
2019-05-12T18:42:42.020Z,52.08
2019-05-12T18:45:12.854Z,53.09
2019-05-12T18:47:43.725Z,53.20
2019-05-12T18:50:14.147Z,53.79
2019-05-12T18:52:43.675Z,53.92
2019-05-12T18:55:12.393Z,54.24
2019-05-12T18:57:46.350Z,54.55
2019-05-12T19:00:17.829Z,54.83
2019-05-12T19:02:46.233Z,55.18
2019-05-12T19:05:21.966Z,55.38
2019-05-12T19:07:45.262Z,55.80
2019-05-12T19:10:14.304Z,55.40
2019-05-12T19:12:43.925Z,55.65
2019-05-12T19:15:17.044Z,56.03
2019-05-12T19:17:43.663Z,56.47
2019-05-12T19:20:13.960Z,56.28
2019-05-12T19:22:48.344Z,56.59
2019-05-12T19:25:14.921Z,56.98
2019-05-12T19:27:45.771Z,57.37
2019-05-12T19:30:19.221Z,57.55
2019-05-12T19:32:45.276Z,58.20
2019-05-12T19:35:15.844Z,58.37
2019-05-12T19:37:45.302Z,59.03
2019-05-12T19:40:17.495Z,59.57
2019-05-12T19:42:45.242Z,60.13
2019-05-12T19:45:19.588Z,60.28
2019-05-12T19:47:45.381Z,60.37
2019-05-12T19:50:18.200Z,60.83
2019-05-12T19:52:45.325Z,61.44
2019-05-12T19:55:14.285Z,61.42
2019-05-12T19:57:44.225Z,61.96
2019-05-12T20:00:13.898Z,62.19
2019-05-12T20:02:42.514Z,62.94
2019-05-12T20:05:14.285Z,62.50
2019-05-12T20:07:41.356Z,62.52
2019-05-12T20:10:12.821Z,63.00
2019-05-12T20:12:40.255Z,63.46
2019-05-12T20:15:09.347Z,63.91
2019-05-12T20:17:37.983Z,64.37
2019-05-12T20:20:06.774Z,64.61
2019-05-12T20:22:35.210Z,64.91
2019-05-12T20:25:04.570Z,65.40
2019-05-12T20:27:34.462Z,65.57
2019-05-12T20:30:08.810Z,65.68
2019-05-12T20:32:35.645Z,65.68
2019-05-12T20:35:05.231Z,66.22
2019-05-12T20:37:33.862Z,66.53
2019-05-12T20:40:05.360Z,66.70
2019-05-12T20:42:41.953Z,67.27
2019-05-12T20:45:05.753Z,67.20
2019-05-12T20:47:39.011Z,67.67
2019-05-12T20:50:06.405Z,67.23
2019-05-12T20:52:39.483Z,67.19
2019-05-12T20:55:05.453Z,67.25
2019-05-12T20:57:34.558Z,67.50
2019-05-12T21:00:08.262Z,67.47
2019-05-12T21:02:34.509Z,67.55
2019-05-12T21:05:09.894Z,67.54
2019-05-12T21:07:34.229Z,68.04
2019-05-12T21:10:04.092Z,67.79
2019-05-12T21:12:33.451Z,67.90
2019-05-12T21:15:13.752Z,67.86
2019-05-12T21:17:40.607Z,68.22
2019-05-12T21:20:04.496Z,69.09
2019-05-12T21:22:34.135Z,69.37
2019-05-12T21:25:04.143Z,69.79
2019-05-12T21:27:33.451Z,69.80
2019-05-12T21:30:10.053Z,70.68
2019-05-12T21:32:33.898Z,70.21
2019-05-12T21:35:15.779Z,70.02
2019-05-12T21:37:37.075Z,69.78
2019-05-12T21:40:06.200Z,70.27
2019-05-12T21:42:34.739Z,69.97
2019-05-12T21:45:04.618Z,69.36
2019-05-12T21:47:42.286Z,69.27
2019-05-12T21:50:04.883Z,69.05
2019-05-12T21:52:37.744Z,69.26
2019-05-12T21:55:06.244Z,69.14
2019-05-12T21:57:34.492Z,69.23
2019-05-12T22:00:04.802Z,68.94
2019-05-12T22:02:34.143Z,69.03
2019-05-12T22:05:04.206Z,68.95
2019-05-12T22:07:38.017Z,68.70
2019-05-12T22:10:04.768Z,68.79
2019-05-12T22:12:33.408Z,68.32
2019-05-12T22:15:03.727Z,68.54
2019-05-12T22:17:33.556Z,68.43
2019-05-12T22:20:08.563Z,68.33
2019-05-12T22:22:33.186Z,68.49
2019-05-12T22:25:01.645Z,68.27
2019-05-12T22:27:31.006Z,68.67
2019-05-12T22:29:59.509Z,68.58
2019-05-12T22:32:29.702Z,68.57
2019-05-12T22:34:58.244Z,68.62
2019-05-12T22:37:29.280Z,68.16
2019-05-12T22:39:56.838Z,68.46
2019-05-12T22:42:25.299Z,68.17
2019-05-12T22:45:01.482Z,68.24
2019-05-12T22:47:24.163Z,68.28
2019-05-12T22:49:56.964Z,68.65
2019-05-12T22:52:23.927Z,68.63
2019-05-12T22:54:53.819Z,69.21
2019-05-12T22:57:24.165Z,69.18
2019-05-12T22:59:53.172Z,69.13
2019-05-12T23:02:25.391Z,69.97
2019-05-12T23:04:51.900Z,70.07
2019-05-12T23:07:27.748Z,69.77
2019-05-12T23:09:50.486Z,70.22
2019-05-12T23:12:20.252Z,69.98
2019-05-12T23:14:54.202Z,70.48
2019-05-12T23:17:18.878Z,70.75
2019-05-12T23:19:51.399Z,71.18
2019-05-12T23:22:17.524Z,71.07
2019-05-12T23:24:46.936Z,71.10
2019-05-12T23:27:18.769Z,71.19
2019-05-12T23:29:45.508Z,71.21
2019-05-12T23:32:15.097Z,71.09
2019-05-12T23:34:44.908Z,70.79
2019-05-12T23:37:14.193Z,71.02
2019-05-12T23:39:44.250Z,70.92
2019-05-12T23:42:13.591Z,70.62
2019-05-12T23:44:44.169Z,70.77
2019-05-12T23:47:12.411Z,70.90
2019-05-12T23:49:40.794Z,70.99
2019-05-12T23:52:09.222Z,70.60
2019-05-12T23:54:37.697Z,70.76
2019-05-12T23:57:06.171Z,70.70
2019-05-12T23:59:34.658Z,70.58
